Tofino Airport
CYAZ : now visible

Airfield :











YOU CAN JOIN US ON...

 
LOGIN :

Register | Disclaimer

   EN    FR    IT 

 









Legend :    VFR   Marginal VFR   IFR   Intensive IFR   Very Intensive IFR
Visi :
Ceiling :
>= 8 km
>= 3000ft
5 to 8 km
1000 to 3000 ft
1500m to 5 km
500 to 1000 ft
800 to 1500m
200 to 500 ft
< 800m
< 200 ft
Symbols :   Thunderstorms  Fog  Heavy snow  Heavy precipitations  Wind > 20 kt






- Airport Elevation : 80 ft
- IATA code : YAZ


CYAZ - Tofino

CURRENT METAR :
  • 252000Z 18006KT 15SM FEW250 19/13 A3018 RMK CI1 CI TR SLP222 DENSITY ALT 300FT

EXPIRED METARs :
  • 251900Z 19005KT 15SM SKC 18/14 A3019 RMK SLP224 DENSITY ALT 200FT
  • 251800Z 20006KT 15SM FEW250 16/14 A3019 RMK CI1 CI TR SLP226

TAF TAF CYAZ
Valid from the 25 at 19:00 until the 26 at 01:00 UTC


251840Z 2519/2601 20006KT P6SM FEW250
BECMG 2520/2522 28008KT RMK NXT FCST BY 261500Z
CZVR FIR / North America



MET'MAP, your aeronautical weather chart ! - Copyright ORBIFLY December 2007 - Disclaimer

ORBIFLY MET'MAP TEAM :

Programming & Development : Alexandra Zaïnal
Original concept : Baudouin d'Aumeries
Technical & hardware support : Manuel Goepfert
Assistance : Marc-Olivier Méhu




SOURCES & CREDITS :

   NOAA       Earth
Advisory